Time;durP1;ratioP1;P1;durP2;ratioP2;P2;SDS_P1;SDS_P2;PMS_P1;PMS_P2;Temp;Humidity;BMP_temperature;BMP_pressure;BME280_temperature;BME280_humidity;BME280_pressure;Samples;Min_cycle;Max_cycle;Signal;HPM_P1;HPM_P2
2023/10/12 00:02:00;;;;;;;;;;;;;;;13.34;100.00;97956.09;1196421;75;3926948;-68
2023/10/12 00:04:36;;;;;;;;;;;;;;;13.30;100.00;97950.81;1224458;75;3042770;-73
2023/10/12 00:07:15;;;;;;;;;;;;;;;12.78;100.00;97946.03;1226292;75;2914811;-72
2023/10/12 00:10:00;;;;;;;;;;;;;;;13.19;100.00;97951.44;1227052;75;2920084;-73
2023/10/12 00:12:35;;;;;;;;;;;;;;;13.05;100.00;97941.31;1227403;75;2910642;-69
2023/10/12 00:15:21;;;;;;;;;;;;;;;13.17;100.00;97939.41;1213067;75;4017578;-71
2023/10/12 00:17:58;;;;;;;;;;;;;;;13.16;100.00;97940.66;1223321;75;3087895;-72
2023/10/12 00:20:35;;;;;;;;;;;;;;;12.92;100.00;97938.94;1225219;75;2922563;-73
2023/10/12 00:23:14;;;;;;;;;;;;;;;13.10;100.00;97934.34;1226081;75;2914319;-73
2023/10/12 00:25:54;;;;;;;;;;;;;;;12.76;100.00;97932.03;1226654;75;2932856;-70
2023/10/12 00:28:29;;;;;;;;;;;;;;;12.74;100.00;97937.25;1223131;75;3101692;-71
2023/10/12 00:31:06;;;;;;;;;;;;;;;12.86;100.00;97927.13;1197462;75;3894922;-72
2023/10/12 00:33:41;;;;;;;;;;;;;;;12.70;100.00;97930.44;1226185;75;2911422;-71
2023/10/12 00:36:22;;;;;;;;;;;;;;;12.81;100.00;97924.34;1227394;75;2911392;-69
2023/10/12 00:38:56;;;;;;;;;;;;;;;12.70;100.00;97930.44;1223815;75;3103587;-69
2023/10/12 00:41:29;;;;;;;;;;;;;;;12.57;100.00;97917.09;1114157;75;15081239;-71
2023/10/12 00:44:06;;;;;;;;;;;;;;;12.43;100.00;97917.94;1216815;75;3779356;-69
2023/10/12 00:46:58;;;;;;;;;;;;;;;12.43;100.00;97921.41;1227163;75;2919773;-69
2023/10/12 00:49:36;;;;;;;;;;;;;;;12.45;100.00;97916.22;1226928;83;2915174;-72
2023/10/12 00:52:21;;;;;;;;;;;;;;;12.54;100.00;97915.31;1226768;75;2915168;-72
2023/10/12 00:54:56;;;;;;;;;;;;;;;12.54;100.00;97907.81;1212295;83;3791261;-69
2023/10/12 00:57:28;;;;;;;;;;;;;;;12.46;100.00;97911.47;1212078;83;4046186;-72
2023/10/12 01:00:03;;;;;;;;;;;;;;;12.37;100.00;97904.16;1227446;75;2942174;-71
2023/10/12 01:02:39;;;;;;;;;;;;;;;12.33;100.00;97907.09;1226455;75;2916644;-69
2023/10/12 01:05:17;;;;;;;;;;;;;;;12.17;100.00;97909.63;1199837;75;3966725;-69
2023/10/12 01:07:50;;;;;;;;;;;;;;;12.25;100.00;97911.50;1214608;75;3893885;-71
2023/10/12 01:10:30;;;;;;;;;;;;;;;12.22;100.00;97906.19;1226968;83;2923462;-72
2023/10/12 01:13:03;;;;;;;;;;;;;;;12.32;100.00;97902.84;1224696;75;2926666;-70
2023/10/12 01:15:38;;;;;;;;;;;;;;;12.32;100.00;97891.84;1223674;75;2963500;-70
2023/10/12 01:18:12;;;;;;;;;;;;;;;12.23;100.00;97889.25;1211271;75;4079406;-71
2023/10/12 01:20:49;;;;;;;;;;;;;;;12.24;100.00;97893.53;1224730;83;2963354;-71
2023/10/12 01:23:24;;;;;;;;;;;;;;;12.04;100.00;97894.25;1227223;75;2910455;-68
2023/10/12 01:26:09;;;;;;;;;;;;;;;12.19;100.00;97887.94;1224648;75;3025309;-68
2023/10/12 01:28:45;;;;;;;;;;;;;;;12.25;100.00;97888.78;1226864;75;2938187;-69
2023/10/12 01:31:23;;;;;;;;;;;;;;;12.18;100.00;97884.47;1226112;75;2918040;-73
2023/10/12 01:33:57;;;;;;;;;;;;;;;12.06;100.00;97891.03;1198921;75;4978605;-72
2023/10/12 01:36:30;;;;;;;;;;;;;;;12.10;100.00;97892.34;1226918;83;2912874;-67
2023/10/12 01:39:14;;;;;;;;;;;;;;;11.97;100.00;97897.41;1197592;75;5022999;-70
2023/10/12 01:41:47;;;;;;;;;;;;;;;11.69;100.00;97895.03;1222226;75;3107645;-70
2023/10/12 01:44:19;;;;;;;;;;;;;;;11.56;100.00;97891.84;1211301;83;4017840;-72
2023/10/12 01:46:52;;;;;;;;;;;;;;;11.54;100.00;97897.03;1223428;75;3033329;-69
2023/10/12 01:49:24;;;;;;;;;;;;;;;11.47;100.00;97895.47;1222590;75;3055576;-70
2023/10/12 01:51:57;;;;;;;;;;;;;;;11.48;100.00;97896.97;1224962;75;2919274;-68
2023/10/12 01:54:33;;;;;;;;;;;;;;;11.69;100.00;97905.25;1226023;75;2915812;-71
2023/10/12 01:57:05;;;;;;;;;;;;;;;11.78;100.00;97898.88;1207880;75;4062692;-67
2023/10/12 01:59:37;;;;;;;;;;;;;;;11.70;100.00;97901.25;1211680;75;3963040;-71
2023/10/12 02:02:13;;;;;;;;;;;;;;;11.85;100.00;97899.22;1226078;75;2918194;-68
2023/10/12 02:04:47;;;;;;;;;;;;;;;11.66;100.00;97897.94;1212222;75;3812147;-69
2023/10/12 02:07:20;;;;;;;;;;;;;;;11.76;100.00;97896.63;1199383;75;4059072;-68
2023/10/12 02:09:55;;;;;;;;;;;;;;;11.81;100.00;97898.69;1226402;75;2921097;-71
2023/10/12 02:12:27;;;;;;;;;;;;;;;11.75;100.00;97894.34;1197684;83;4827285;-71
2023/10/12 02:15:01;;;;;;;;;;;;;;;11.67;100.00;97892.00;1226859;75;2921259;-70
2023/10/12 02:17:35;;;;;;;;;;;;;;;11.72;100.00;97883.09;1226861;75;2921280;-70
2023/10/12 02:20:11;;;;;;;;;;;;;;;11.75;100.00;97892.34;1222136;75;2988621;-69
2023/10/12 02:22:44;;;;;;;;;;;;;;;11.67;100.00;97891.25;1224672;75;3004568;-70
2023/10/12 02:25:26;;;;;;;;;;;;;;;11.64;100.00;97886.69;1225654;75;2937824;-68
2023/10/12 02:27:59;;;;;;;;;;;;;;;11.45;100.00;97881.47;1226378;75;2926160;-68
2023/10/12 02:30:31;;;;;;;;;;;;;;;11.56;100.00;97883.59;1199271;83;5104640;-71
2023/10/12 02:33:07;;;;;;;;;;;;;;;11.59;100.00;97879.91;1227174;75;2923413;-70
2023/10/12 02:35:44;;;;;;;;;;;;;;;11.58;100.00;97891.38;1210639;83;4048920;-73
2023/10/12 02:38:17;;;;;;;;;;;;;;;11.52;100.00;97903.00;1212198;75;3993829;-69
2023/10/12 02:40:57;;;;;;;;;;;;;;;11.59;100.00;97890.88;1223577;75;2991272;-71
2023/10/12 02:43:32;;;;;;;;;;;;;;;11.56;100.00;97891.09;1211934;75;3944774;-72
2023/10/12 02:46:05;;;;;;;;;;;;;;;11.36;100.00;97895.28;1211635;75;3797437;-69
2023/10/12 02:48:39;;;;;;;;;;;;;;;11.42;100.00;97890.63;1211925;75;4008098;-67
2023/10/12 02:51:14;;;;;;;;;;;;;;;11.44;100.00;97898.38;1225353;83;2928158;-73
2023/10/12 02:53:47;;;;;;;;;;;;;;;11.28;100.00;97891.41;1226014;83;2932407;-70
2023/10/12 02:56:24;;;;;;;;;;;;;;;11.19;100.00;97895.03;1226727;75;2921729;-72
2023/10/12 02:59:02;;;;;;;;;;;;;;;11.36;100.00;97887.06;1223704;75;3033576;-71
2023/10/12 03:01:38;;;;;;;;;;;;;;;11.28;100.00;97885.91;1226362;75;2935011;-69
2023/10/12 03:04:12;;;;;;;;;;;;;;;11.05;100.00;97887.56;1226325;75;2922640;-73
2023/10/12 03:06:55;;;;;;;;;;;;;;;11.06;100.00;97889.06;1226586;75;2922744;-69
2023/10/12 03:09:37;;;;;;;;;;;;;;;10.83;100.00;97887.94;1210817;83;4042642;-69
2023/10/12 03:12:13;;;;;;;;;;;;;;;10.77;100.00;97890.56;1225998;83;2924861;-72
2023/10/12 03:14:46;;;;;;;;;;;;;;;10.84;100.00;97890.19;1224077;75;2947040;-71
2023/10/12 03:17:18;;;;;;;;;;;;;;;10.90;100.00;97886.81;1225441;75;2925780;-73
2023/10/12 03:19:55;;;;;;;;;;;;;;;10.85;100.00;97885.50;1226348;75;2924510;-72
2023/10/12 03:22:31;;;;;;;;;;;;;;;10.98;100.00;97891.44;1225743;75;2930808;-71
2023/10/12 03:25:19;;;;;;;;;;;;;;;10.81;100.00;97887.66;1226388;75;2934025;-69
2023/10/12 03:27:55;;;;;;;;;;;;;;;10.79;100.00;97887.38;1208150;75;4098899;-70
2023/10/12 03:30:34;;;;;;;;;;;;;;;10.83;100.00;97885.94;1225927;83;2934499;-71
2023/10/12 03:33:11;;;;;;;;;;;;;;;10.65;100.00;97897.06;1210871;75;3913052;-69
2023/10/12 03:35:57;;;;;;;;;;;;;;;10.83;100.00;97894.16;1226270;75;2919361;-71
2023/10/12 03:38:33;;;;;;;;;;;;;;;10.64;100.00;97887.34;1226829;75;2918825;-68
2023/10/12 03:44:17;;;;;;;;;;;;;;;10.73;100.00;97900.22;1225890;83;2926895;-69
2023/10/12 03:46:57;;;;;;;;;;;;;;;10.57;100.00;97906.88;1226435;75;2934836;-67
2023/10/12 03:49:44;;;;;;;;;;;;;;;10.60;100.00;97908.69;1222106;75;2995458;-70
2023/10/12 03:52:16;;;;;;;;;;;;;;;10.53;100.00;97903.56;1226001;83;2929280;-72
2023/10/12 03:55:16;;;;;;;;;;;;;;;10.56;100.00;97906.13;1197989;75;5009784;-69
2023/10/12 03:57:51;;;;;;;;;;;;;;;10.40;100.00;97903.81;1225352;75;2923237;-71
2023/10/12 04:00:32;;;;;;;;;;;;;;;10.51;100.00;97900.53;1225647;75;2922276;-71
2023/10/12 04:03:12;;;;;;;;;;;;;;;10.47;100.00;97898.00;1225464;75;2919797;-71
2023/10/12 04:05:51;;;;;;;;;;;;;;;10.45;100.00;97903.19;1223246;75;2950119;-70
2023/10/12 04:11:47;;;;;;;;;;;;;;;10.49;100.00;97900.28;1224636;75;2927123;-67
2023/10/12 04:14:38;;;;;;;;;;;;;;;10.37;100.00;97894.56;1222565;75;3003309;-73
2023/10/12 04:17:39;;;;;;;;;;;;;;;10.22;100.00;97893.72;1211367;75;3965938;-71
2023/10/12 04:20:21;;;;;;;;;;;;;;;10.29;100.00;97898.13;1226013;75;2926907;-71
2023/10/12 04:25:49;;;;;;;;;;;;;;;10.31;100.00;97896.44;1221627;75;3053509;-68
2023/10/12 04:28:32;;;;;;;;;;;;;;;10.03;100.00;97891.16;1194823;75;9651467;-71
2023/10/12 04:34:05;;;;;;;;;;;;;;;10.16;100.00;97893.63;1140953;75;7880763;-72
2023/10/12 04:36:44;;;;;;;;;;;;;;;9.98;100.00;97904.69;1226174;75;2927175;-68
2023/10/12 04:39:24;;;;;;;;;;;;;;;9.93;100.00;97892.44;1221114;75;3006726;-70
2023/10/12 04:42:05;;;;;;;;;;;;;;;10.00;100.00;97891.31;1222619;75;3016263;-70
2023/10/12 04:44:43;;;;;;;;;;;;;;;10.16;100.00;97896.38;1221765;75;3035253;-68
2023/10/12 04:47:23;;;;;;;;;;;;;;;9.94;100.00;97893.19;1224173;75;2964932;-69
2023/10/12 04:49:57;;;;;;;;;;;;;;;10.03;100.00;97884.94;1225731;75;2924887;-69
2023/10/12 04:52:36;;;;;;;;;;;;;;;10.04;100.00;97880.94;1223893;75;2927953;-71
2023/10/12 04:55:19;;;;;;;;;;;;;;;9.96;100.00;97883.28;1223279;83;2946627;-69
2023/10/12 05:00:48;;;;;;;;;;;;;;;10.08;100.00;97887.00;1225229;75;2926574;-73
2023/10/12 05:03:33;;;;;;;;;;;;;;;10.09;100.00;97887.75;1225184;75;2917559;-70
2023/10/12 05:06:08;;;;;;;;;;;;;;;9.97;100.00;97894.97;1199680;75;4963994;-68
2023/10/12 05:08:40;;;;;;;;;;;;;;;10.04;100.00;97894.63;1224998;75;2913824;-72
2023/10/12 05:11:14;;;;;;;;;;;;;;;10.05;100.00;97901.59;1219916;83;2985010;-68
2023/10/12 05:13:46;;;;;;;;;;;;;;;9.96;100.00;97898.94;1221205;75;3082335;-70
2023/10/12 05:16:26;;;;;;;;;;;;;;;9.91;100.00;97896.81;1220389;75;2984461;-68
2023/10/12 05:18:59;;;;;;;;;;;;;;;10.15;100.00;97900.34;1223820;83;2927022;-69
2023/10/12 05:21:33;;;;;;;;;;;;;;;10.16;100.00;97892.88;1224156;75;2926201;-72
2023/10/12 05:24:08;;;;;;;;;;;;;;;10.26;100.00;97904.50;1198925;75;4893209;-71
2023/10/12 05:26:41;;;;;;;;;;;;;;;10.20;100.00;97899.69;1221223;75;3119466;-70
2023/10/12 05:29:34;;;;;;;;;;;;;;;10.20;100.00;97904.41;1225340;75;2921583;-73
2023/10/12 05:32:18;;;;;;;;;;;;;;;10.24;100.00;97905.72;1223473;75;2930854;-68
2023/10/12 05:34:52;;;;;;;;;;;;;;;10.10;100.00;97913.88;1185698;75;6087607;-69
2023/10/12 05:37:27;;;;;;;;;;;;;;;10.08;100.00;97908.91;1225045;83;2925079;-69
2023/10/12 05:40:09;;;;;;;;;;;;;;;10.28;100.00;97907.53;1180214;75;5898851;-71
2023/10/12 05:42:46;;;;;;;;;;;;;;;10.27;100.00;97912.25;1222990;75;2934719;-67
2023/10/12 05:45:22;;;;;;;;;;;;;;;10.35;100.00;97918.16;1218080;75;3087982;-73
2023/10/12 05:47:55;;;;;;;;;;;;;;;10.19;100.00;97920.03;1211298;75;3962013;-67
2023/10/12 05:50:30;;;;;;;;;;;;;;;10.11;100.00;97916.16;1224054;75;2925547;-69
2023/10/12 05:53:07;;;;;;;;;;;;;;;10.45;100.00;97914.13;1224165;75;2922440;-71
2023/10/12 05:55:40;;;;;;;;;;;;;;;10.59;100.00;97916.13;1225052;83;2928184;-72
2023/10/12 05:58:15;;;;;;;;;;;;;;;10.60;100.00;97919.63;1222612;75;3060645;-70
2023/10/12 06:00:47;;;;;;;;;;;;;;;10.68;100.00;97920.00;1223491;75;2963896;-68
2023/10/12 06:03:20;;;;;;;;;;;;;;;10.76;100.00;97926.66;1225056;75;2919923;-69
2023/10/12 06:05:53;;;;;;;;;;;;;;;11.02;100.00;97922.13;1223481;75;2966271;-74
2023/10/12 06:08:29;;;;;;;;;;;;;;;11.17;100.00;97927.63;1222857;75;2997416;-71
2023/10/12 06:11:04;;;;;;;;;;;;;;;11.48;100.00;97927.13;1225122;75;2925368;-73
2023/10/12 06:13:43;;;;;;;;;;;;;;;11.54;100.00;97929.19;1220945;75;3024990;-70
2023/10/12 06:16:17;;;;;;;;;;;;;;;11.83;100.00;97925.63;1221850;75;3088246;-69
2023/10/12 06:18:53;;;;;;;;;;;;;;;12.52;100.00;97929.53;1221964;75;3030318;-70
2023/10/12 06:21:26;;;;;;;;;;;;;;;12.55;100.00;97925.81;1224031;75;2927646;-69
2023/10/12 06:24:05;;;;;;;;;;;;;;;12.75;100.00;97924.28;1223795;75;2929619;-69
2023/10/12 06:26:39;;;;;;;;;;;;;;;14.91;100.00;97928.63;1220704;75;3097348;-69
2023/10/12 06:29:12;;;;;;;;;;;;;;;17.01;95.69;97927.72;1225254;83;2924587;-69
2023/10/12 06:31:51;;;;;;;;;;;;;;;18.60;80.05;97928.47;1196802;75;4016274;-73
2023/10/12 06:34:29;;;;;;;;;;;;;;;20.21;70.20;97920.09;1224296;75;2919603;-71
2023/10/12 06:37:11;;;;;;;;;;;;;;;21.72;65.17;97919.28;1223748;75;2922955;-73
2023/10/12 06:42:37;;;;;;;;;;;;;;;23.06;58.53;97919.59;1221139;83;3031727;-73
2023/10/12 06:45:08;;;;;;;;;;;;;;;19.87;67.70;97925.56;1225393;83;2928021;-70
2023/10/12 06:47:44;;;;;;;;;;;;;;;18.22;80.92;97931.19;1222777;75;3043793;-71
2023/10/12 06:50:20;;;;;;;;;;;;;;;17.86;85.41;97923.00;1221999;75;3057028;-69
2023/10/12 06:52:57;;;;;;;;;;;;;;;17.84;86.79;97935.88;1225243;75;2919532;-72
2023/10/12 06:55:32;;;;;;;;;;;;;;;18.04;85.91;97938.19;1223817;83;2956049;-74
2023/10/12 06:58:04;;;;;;;;;;;;;;;20.13;74.93;97924.03;1225390;75;2925428;-71
2023/10/12 07:00:34;;;;;;;;;;;;;;;20.99;67.99;97930.88;1220961;75;3113741;-68
2023/10/12 07:03:10;;;;;;;;;;;;;;;23.86;59.06;97924.13;1223697;75;2955463;-70
2023/10/12 07:05:40;;;;;;;;;;;;;;;25.12;55.18;97917.00;1225289;75;2929258;-74
2023/10/12 07:08:15;;;;;;;;;;;;;;;27.82;49.44;97927.41;1226359;75;2922983;-73
2023/10/12 07:11:00;;;;;;;;;;;;;;;26.77;49.31;97930.63;1211946;75;3900034;-70
2023/10/12 07:13:32;;;;;;;;;;;;;;;26.17;51.27;97926.44;1199593;75;4972489;-71
2023/10/12 07:16:06;;;;;;;;;;;;;;;24.58;54.31;97929.22;1212845;75;3856445;-70
2023/10/12 07:18:42;;;;;;;;;;;;;;;20.31;66.63;97933.56;1225427;75;2927154;-72
2023/10/12 07:21:21;;;;;;;;;;;;;;;20.29;71.85;97933.34;1190334;75;4521100;-72
2023/10/12 07:23:56;;;;;;;;;;;;;;;23.87;58.26;97931.97;1225495;75;2924659;-71
2023/10/12 07:26:31;;;;;;;;;;;;;;;27.21;50.73;97929.13;1225973;75;2922430;-69
2023/10/12 07:29:16;;;;;;;;;;;;;;;26.21;51.86;97932.38;1221858;75;3103506;-71
2023/10/12 07:31:51;;;;;;;;;;;;;;;27.15;49.65;97934.97;1211200;83;3904651;-71
2023/10/12 07:34:23;;;;;;;;;;;;;;;24.29;54.86;97951.09;1226593;75;2922915;-73
2023/10/12 07:36:57;;;;;;;;;;;;;;;26.14;51.16;97943.13;1221878;75;3058929;-72
2023/10/12 07:39:38;;;;;;;;;;;;;;;28.20;47.67;97937.25;1225103;75;2926478;-71
2023/10/12 07:42:24;;;;;;;;;;;;;;;26.92;49.97;97940.19;1210109;83;4011280;-69
2023/10/12 07:44:59;;;;;;;;;;;;;;;27.38;48.89;97934.66;1199515;75;3910844;-72
2023/10/12 07:47:40;;;;;;;;;;;;;;;27.35;49.09;97929.47;1139983;83;8638690;-70
2023/10/12 07:50:15;;;;;;;;;;;;;;;29.08;46.07;97932.34;1225618;75;2924969;-73
2023/10/12 07:52:59;;;;;;;;;;;;;;;29.58;45.04;97916.69;1221298;83;2964624;-74
2023/10/12 07:55:31;;;;;;;;;;;;;;;31.50;41.72;97923.38;1223860;75;2943012;-70
2023/10/12 07:58:12;;;;;;;;;;;;;;;28.55;45.42;97926.47;1223336;75;3054921;-70
2023/10/12 08:00:51;;;;;;;;;;;;;;;30.86;42.68;97915.91;1225338;83;2931224;-72
2023/10/12 08:03:25;;;;;;;;;;;;;;;31.05;41.53;97914.22;1225668;75;2923280;-71
2023/10/12 08:06:07;;;;;;;;;;;;;;;31.38;40.92;97902.81;1221396;75;3102889;-71
2023/10/12 08:08:40;;;;;;;;;;;;;;;29.20;43.84;97913.44;1223546;75;2962328;-73
2023/10/12 08:11:12;;;;;;;;;;;;;;;28.66;43.42;97916.66;1223598;75;2927921;-72
2023/10/12 08:13:54;;;;;;;;;;;;;;;31.57;39.98;97899.75;1207249;75;3795151;-69
2023/10/12 08:16:40;;;;;;;;;;;;;;;29.67;42.47;97899.00;1210502;75;4035235;-75
2023/10/12 08:19:28;;;;;;;;;;;;;;;27.36;45.93;97902.84;1224811;75;2923024;-70
2023/10/12 08:22:09;;;;;;;;;;;;;;;29.35;44.02;97923.63;1222909;75;2992826;-75
2023/10/12 08:24:45;;;;;;;;;;;;;;;29.03;44.09;97916.41;1225332;75;2929394;-72
2023/10/12 08:27:18;;;;;;;;;;;;;;;29.48;43.26;97914.63;1225281;75;2932426;-69
2023/10/12 08:30:11;;;;;;;;;;;;;;;26.86;48.34;97926.38;1226426;75;2924353;-73
2023/10/12 08:32:56;;;;;;;;;;;;;;;26.77;48.78;97925.00;1201697;75;3801292;-70
2023/10/12 08:35:55;;;;;;;;;;;;;;;25.31;51.45;97922.13;1224401;75;2933021;-74
2023/10/12 08:38:33;;;;;;;;;;;;;;;24.23;54.04;97925.38;1225525;75;2927446;-69
2023/10/12 08:43:52;;;;;;;;;;;;;;;26.20;52.78;97920.41;1224613;75;2922413;-78
2023/10/12 08:54:47;;;;;;;;;;;;;;;24.90;55.06;97913.75;1224896;75;2954126;-70
2023/10/12 08:57:34;;;;;;;;;;;;;;;25.66;52.76;97912.50;1225919;75;2919579;-72
2023/10/12 09:00:39;;;;;;;;;;;;;;;26.42;52.54;97912.31;1223079;75;2977764;-70
2023/10/12 09:03:28;;;;;;;;;;;;;;;26.53;50.58;97911.78;1225356;75;2924254;-71
2023/10/12 09:06:01;;;;;;;;;;;;;;;26.68;50.35;97914.47;1225938;75;2927185;-73
2023/10/12 09:08:46;;;;;;;;;;;;;;;26.76;51.15;97920.69;1225725;83;2947721;-72
2023/10/12 09:11:17;;;;;;;;;;;;;;;26.68;50.05;97914.47;1222109;75;3064071;-70
2023/10/12 09:13:49;;;;;;;;;;;;;;;26.55;51.22;97917.59;1226532;75;2921873;-72
2023/10/12 09:16:26;;;;;;;;;;;;;;;26.33;51.21;97913.72;1225603;75;2925096;-71
2023/10/12 09:19:01;;;;;;;;;;;;;;;26.50;50.27;97907.34;1211207;83;4019836;-72
2023/10/12 09:21:42;;;;;;;;;;;;;;;26.22;51.97;97903.00;1225960;75;2924725;-72
2023/10/12 09:24:28;;;;;;;;;;;;;;;25.55;52.24;97903.81;1209739;75;4104815;-71
2023/10/12 09:27:02;;;;;;;;;;;;;;;26.18;51.26;97895.00;1210128;75;3943837;-73
2023/10/12 09:29:42;;;;;;;;;;;;;;;26.22;52.98;97895.31;1223299;83;3012021;-70
2023/10/12 09:32:19;;;;;;;;;;;;;;;25.65;51.54;97899.06;1225542;75;2931491;-69
2023/10/12 09:35:11;;;;;;;;;;;;;;;26.05;51.78;97893.28;1223224;75;2938572;-72
2023/10/12 09:37:51;;;;;;;;;;;;;;;25.84;52.82;97890.81;1226061;75;2934244;-73
2023/10/12 09:40:29;;;;;;;;;;;;;;;25.64;51.71;97892.72;1223105;75;3081663;-71
2023/10/12 09:43:06;;;;;;;;;;;;;;;25.46;52.01;97891.16;1225161;75;2930461;-70
2023/10/12 09:45:41;;;;;;;;;;;;;;;26.91;49.44;97888.84;1225732;75;2926350;-71
2023/10/12 09:48:19;;;;;;;;;;;;;;;27.18;49.03;97886.03;1225806;75;2925386;-73
2023/10/12 09:50:54;;;;;;;;;;;;;;;26.85;49.31;97882.03;1225502;75;2917769;-71
2023/10/12 09:53:35;;;;;;;;;;;;;;;27.47;48.77;97881.84;1224067;75;2938729;-70
2023/10/12 09:56:15;;;;;;;;;;;;;;;27.44;47.82;97880.97;1225637;75;2925418;-70
2023/10/12 09:59:02;;;;;;;;;;;;;;;27.16;47.81;97880.25;1210899;75;4050661;-72
2023/10/12 10:04:34;;;;;;;;;;;;;;;27.21;46.69;97880.59;1226087;75;2934271;-69
2023/10/12 10:07:25;;;;;;;;;;;;;;;29.06;45.47;97884.25;1211506;75;3941687;-69
2023/10/12 10:09:59;;;;;;;;;;;;;;;28.69;45.44;97881.66;1223310;83;2967346;-74
2023/10/12 10:12:35;;;;;;;;;;;;;;;26.94;48.24;97882.09;1225114;83;2916951;-73
2023/10/12 10:15:16;;;;;;;;;;;;;;;26.87;48.95;97885.00;1224784;75;2929429;-72
2023/10/12 10:17:52;;;;;;;;;;;;;;;27.02;48.18;97884.03;1223616;75;3011683;-72
2023/10/12 10:23:19;;;;;;;;;;;;;;;27.72;47.93;97868.31;1224572;83;2928090;-72
2023/10/12 10:26:16;;;;;;;;;;;;;;;26.99;48.59;97874.72;1213349;75;3799234;-68
2023/10/12 10:28:54;;;;;;;;;;;;;;;27.38;47.22;97878.44;1220430;75;3071107;-70
2023/10/12 10:31:30;;;;;;;;;;;;;;;27.87;46.51;97858.13;1224130;83;2939080;-70
2023/10/12 10:34:05;;;;;;;;;;;;;;;27.53;46.71;97865.44;1214017;75;3793435;-73
2023/10/12 10:36:38;;;;;;;;;;;;;;;27.68;46.90;97861.63;1224946;75;2931609;-67
2023/10/12 10:42:00;;;;;;;;;;;;;;;27.50;48.95;97855.38;1223849;75;2926276;-73
2023/10/12 10:44:41;;;;;;;;;;;;;;;27.10;49.61;97850.94;1225663;75;2922458;-70
2023/10/12 10:47:15;;;;;;;;;;;;;;;28.42;47.40;97848.03;1224813;75;2924988;-72
2023/10/12 10:49:48;;;;;;;;;;;;;;;27.98;48.02;97857.56;1223710;75;2992896;-71
2023/10/12 10:52:26;;;;;;;;;;;;;;;29.68;46.57;97841.22;1223136;83;2976167;-72
2023/10/12 10:55:02;;;;;;;;;;;;;;;29.36;46.81;97834.84;1225827;75;2928598;-71
2023/10/12 10:57:37;;;;;;;;;;;;;;;30.41;45.02;97839.59;1225309;83;2928656;-74
2023/10/12 11:00:17;;;;;;;;;;;;;;;30.72;44.40;97839.41;1212048;75;3943133;-76
2023/10/12 11:02:52;;;;;;;;;;;;;;;31.13;44.04;97829.91;1165247;83;7713539;-70
2023/10/12 11:05:28;;;;;;;;;;;;;;;30.95;42.24;97827.41;1225889;83;2930515;-73
2023/10/12 11:08:18;;;;;;;;;;;;;;;29.17;43.20;97832.88;1225836;75;2941595;-74
2023/10/12 11:13:38;;;;;;;;;;;;;;;29.86;42.80;97819.09;1225136;75;2920758;-73
2023/10/12 11:16:28;;;;;;;;;;;;;;;30.85;41.08;97821.16;1222236;75;3016885;-74
2023/10/12 11:19:01;;;;;;;;;;;;;;;32.45;39.33;97814.16;1225917;75;2918583;-74
2023/10/12 11:21:33;;;;;;;;;;;;;;;31.51;40.51;97816.56;1226014;75;2917160;-75
2023/10/12 11:24:09;;;;;;;;;;;;;;;31.07;41.26;97815.38;1225747;75;2937026;-73
2023/10/12 11:26:55;;;;;;;;;;;;;;;31.96;40.15;97816.34;1223708;75;2936267;-75
2023/10/12 11:29:28;;;;;;;;;;;;;;;33.41;38.41;97812.09;1225552;75;2923227;-71
2023/10/12 11:32:08;;;;;;;;;;;;;;;31.86;42.04;97807.25;1224526;75;2930406;-75
2023/10/12 11:34:46;;;;;;;;;;;;;;;30.31;44.10;97805.81;1224837;75;2919680;-75
2023/10/12 11:37:19;;;;;;;;;;;;;;;30.19;45.06;97804.25;1211442;75;3952216;-73
2023/10/12 11:39:52;;;;;;;;;;;;;;;31.52;42.90;97801.81;1225516;75;2924602;-72
2023/10/12 11:42:28;;;;;;;;;;;;;;;31.18;42.13;97789.91;1225104;75;2926135;-70
2023/10/12 11:45:09;;;;;;;;;;;;;;;32.43;41.64;97788.53;1225027;75;2918824;-77
2023/10/12 11:47:43;;;;;;;;;;;;;;;31.55;41.62;97783.59;1225698;75;2928878;-72
2023/10/12 11:50:15;;;;;;;;;;;;;;;30.48;43.73;97784.97;1225613;75;2918980;-71
2023/10/12 11:52:50;;;;;;;;;;;;;;;32.03;42.17;97784.19;1225425;75;2923719;-77
2023/10/12 11:55:27;;;;;;;;;;;;;;;30.86;42.79;97783.06;1224982;75;2919728;-77
2023/10/12 11:58:07;;;;;;;;;;;;;;;31.78;42.31;97779.97;1225879;75;2921862;-74
2023/10/12 12:00:44;;;;;;;;;;;;;;;32.54;41.02;97766.44;1225655;75;2923966;-73
2023/10/12 12:03:17;;;;;;;;;;;;;;;32.38;40.92;97760.63;1223107;83;2924423;-71
2023/10/12 12:05:51;;;;;;;;;;;;;;;31.97;42.06;97755.56;1196658;75;4970904;-73
2023/10/12 12:08:25;;;;;;;;;;;;;;;30.61;42.36;97758.19;1226222;75;2927876;-70
2023/10/12 12:11:03;;;;;;;;;;;;;;;31.20;42.08;97746.88;1225345;75;2922012;-71
2023/10/12 12:13:43;;;;;;;;;;;;;;;30.78;43.09;97743.69;1226336;75;2919425;-71
2023/10/12 12:16:20;;;;;;;;;;;;;;;30.94;43.71;97749.63;1191477;83;5440456;-72
2023/10/12 12:18:53;;;;;;;;;;;;;;;30.56;43.62;97745.16;1222487;83;3061040;-74
2023/10/12 12:21:34;;;;;;;;;;;;;;;31.17;42.31;97753.75;1224120;75;2921092;-73
2023/10/12 12:24:21;;;;;;;;;;;;;;;31.22;41.82;97752.66;1225161;75;2926191;-71
2023/10/12 12:26:54;;;;;;;;;;;;;;;30.85;40.53;97750.47;1223861;75;2994804;-74
2023/10/12 12:29:29;;;;;;;;;;;;;;;31.22;41.10;97752.66;1223437;75;2975757;-72
2023/10/12 12:32:03;;;;;;;;;;;;;;;31.59;41.55;97749.88;1224490;75;2920701;-71
2023/10/12 12:34:41;;;;;;;;;;;;;;;31.72;41.18;97750.56;1225377;75;2922538;-68
2023/10/12 12:37:16;;;;;;;;;;;;;;;30.96;42.33;97744.09;1226211;75;2914797;-72
2023/10/12 12:40:01;;;;;;;;;;;;;;;31.83;41.11;97746.97;1225599;75;2920015;-72
2023/10/12 12:42:34;;;;;;;;;;;;;;;31.06;40.97;97746.06;1225812;83;2917684;-70
2023/10/12 12:45:10;;;;;;;;;;;;;;;30.81;40.79;97738.88;1225813;75;2931364;-72
2023/10/12 12:47:43;;;;;;;;;;;;;;;31.91;40.20;97735.34;1226533;75;2914390;-73
2023/10/12 12:50:15;;;;;;;;;;;;;;;31.05;41.31;97747.38;1226328;75;2923745;-69
2023/10/12 12:52:49;;;;;;;;;;;;;;;31.47;41.33;97742.78;1226940;75;2923465;-70
2023/10/12 12:55:22;;;;;;;;;;;;;;;31.06;41.75;97743.94;1213504;75;3806505;-71
2023/10/12 12:57:58;;;;;;;;;;;;;;;31.92;40.94;97742.47;1214041;75;3796688;-71
2023/10/12 13:00:34;;;;;;;;;;;;;;;31.08;42.16;97737.69;1225196;75;2941806;-77
2023/10/12 13:03:09;;;;;;;;;;;;;;;30.82;43.25;97739.66;1222991;75;3035138;-72
2023/10/12 13:05:43;;;;;;;;;;;;;;;31.06;43.02;97737.56;1212463;75;3910098;-72
2023/10/12 13:08:16;;;;;;;;;;;;;;;31.20;44.05;97733.47;1225783;75;2935906;-71
2023/10/12 13:10:49;;;;;;;;;;;;;;;30.64;44.23;97742.81;1212408;75;3935185;-72
2023/10/12 13:13:21;;;;;;;;;;;;;;;31.93;41.56;97741.13;1224714;75;2926963;-73
2023/10/12 13:15:56;;;;;;;;;;;;;;;32.00;41.37;97735.22;1223077;75;3036633;-74
2023/10/12 13:18:29;;;;;;;;;;;;;;;31.44;42.37;97733.44;1225622;75;2916962;-69
2023/10/12 13:21:06;;;;;;;;;;;;;;;31.51;42.34;97740.94;1226377;75;2917927;-73
2023/10/12 13:23:38;;;;;;;;;;;;;;;31.46;41.95;97739.22;1225525;83;2929324;-75
2023/10/12 13:26:12;;;;;;;;;;;;;;;30.45;42.18;97737.41;1225725;75;2927129;-74
2023/10/12 13:28:44;;;;;;;;;;;;;;;30.88;42.15;97725.91;1224166;75;2963508;-74
2023/10/12 13:31:23;;;;;;;;;;;;;;;30.92;42.60;97724.06;1221961;75;3093179;-70
2023/10/12 13:33:55;;;;;;;;;;;;;;;29.46;44.32;97722.69;1224623;75;2921506;-70
2023/10/12 13:36:27;;;;;;;;;;;;;;;29.69;43.56;97727.00;1226076;75;2920644;-73
2023/10/12 13:39:00;;;;;;;;;;;;;;;30.76;42.15;97723.81;1214171;83;3786531;-73
2023/10/12 13:41:33;;;;;;;;;;;;;;;30.45;40.43;97729.69;1225300;83;2923103;-74
2023/10/12 13:44:08;;;;;;;;;;;;;;;30.14;41.05;97721.38;1222648;75;3001587;-74
2023/10/12 13:46:46;;;;;;;;;;;;;;;30.38;40.42;97715.78;1199766;83;4796154;-72
2023/10/12 13:49:20;;;;;;;;;;;;;;;29.73;40.17;97719.56;1225187;83;2919935;-70
2023/10/12 13:51:54;;;;;;;;;;;;;;;30.15;40.47;97720.75;1226006;75;2921063;-71
2023/10/12 13:54:28;;;;;;;;;;;;;;;29.81;40.11;97716.50;1225504;75;2916502;-72